sensor_id;sensor_type;location;lat;lon;timestamp;P1;durP1;ratioP1;P2;durP2;ratioP2
75628;SDS011;64213;46.452;16.994;2023-05-07T00:00:04;12.07;;;5.00;;
75628;SDS011;64213;46.452;16.994;2023-05-07T00:03:11;10.88;;;5.12;;
75628;SDS011;64213;46.452;16.994;2023-05-07T00:06:14;11.45;;;4.95;;
75628;SDS011;64213;46.452;16.994;2023-05-07T00:09:21;9.80;;;4.65;;
75628;SDS011;64213;46.452;16.994;2023-05-07T00:12:23;9.50;;;4.30;;
75628;SDS011;64213;46.452;16.994;2023-05-07T00:15:26;10.87;;;5.30;;
75628;SDS011;64213;46.452;16.994;2023-05-07T00:18:28;10.05;;;4.65;;
75628;SDS011;64213;46.452;16.994;2023-05-07T00:21:31;10.40;;;4.65;;
75628;SDS011;64213;46.452;16.994;2023-05-07T00:24:33;10.98;;;4.80;;
75628;SDS011;64213;46.452;16.994;2023-05-07T00:27:36;10.40;;;4.55;;
75628;SDS011;64213;46.452;16.994;2023-05-07T00:30:38;11.37;;;5.17;;
75628;SDS011;64213;46.452;16.994;2023-05-07T00:33:40;10.88;;;4.93;;
75628;SDS011;64213;46.452;16.994;2023-05-07T00:36:42;9.68;;;4.43;;
75628;SDS011;64213;46.452;16.994;2023-05-07T00:39:44;10.10;;;5.25;;
75628;SDS011;64213;46.452;16.994;2023-05-07T00:42:46;12.95;;;5.22;;
75628;SDS011;64213;46.452;16.994;2023-05-07T00:45:50;10.07;;;4.97;;
75628;SDS011;64213;46.452;16.994;2023-05-07T00:48:53;10.07;;;4.57;;
75628;SDS011;64213;46.452;16.994;2023-05-07T00:51:55;10.20;;;4.53;;
75628;SDS011;64213;46.452;16.994;2023-05-07T00:54:58;11.65;;;5.00;;
75628;SDS011;64213;46.452;16.994;2023-05-07T00:58:06;10.90;;;4.80;;
75628;SDS011;64213;46.452;16.994;2023-05-07T01:01:08;10.23;;;4.97;;
75628;SDS011;64213;46.452;16.994;2023-05-07T01:04:10;10.85;;;5.10;;
75628;SDS011;64213;46.452;16.994;2023-05-07T01:07:12;10.20;;;4.90;;
75628;SDS011;64213;46.452;16.994;2023-05-07T01:10:14;11.05;;;4.70;;
75628;SDS011;64213;46.452;16.994;2023-05-07T01:13:17;9.63;;;4.78;;
75628;SDS011;64213;46.452;16.994;2023-05-07T01:16:20;10.57;;;4.80;;
75628;SDS011;64213;46.452;16.994;2023-05-07T01:19:23;9.43;;;4.60;;
75628;SDS011;64213;46.452;16.994;2023-05-07T01:22:29;10.02;;;5.00;;
75628;SDS011;64213;46.452;16.994;2023-05-07T01:25:34;10.90;;;4.68;;
75628;SDS011;64213;46.452;16.994;2023-05-07T01:28:36;10.10;;;4.90;;
75628;SDS011;64213;46.452;16.994;2023-05-07T01:31:38;11.63;;;4.90;;
75628;SDS011;64213;46.452;16.994;2023-05-07T01:34:44;10.43;;;5.10;;
75628;SDS011;64213;46.452;16.994;2023-05-07T01:37:48;11.82;;;5.05;;
75628;SDS011;64213;46.452;16.994;2023-05-07T01:40:51;12.95;;;5.82;;
75628;SDS011;64213;46.452;16.994;2023-05-07T01:43:53;13.25;;;6.10;;
75628;SDS011;64213;46.452;16.994;2023-05-07T01:46:56;12.53;;;6.47;;
75628;SDS011;64213;46.452;16.994;2023-05-07T01:49:59;11.38;;;5.78;;
75628;SDS011;64213;46.452;16.994;2023-05-07T01:53:02;13.85;;;5.62;;
75628;SDS011;64213;46.452;16.994;2023-05-07T01:56:04;12.98;;;6.30;;
75628;SDS011;64213;46.452;16.994;2023-05-07T01:59:06;12.73;;;6.20;;
75628;SDS011;64213;46.452;16.994;2023-05-07T02:02:09;11.73;;;5.90;;
75628;SDS011;64213;46.452;16.994;2023-05-07T02:05:11;11.68;;;5.47;;
75628;SDS011;64213;46.452;16.994;2023-05-07T02:08:13;13.15;;;5.68;;
75628;SDS011;64213;46.452;16.994;2023-05-07T02:11:15;12.32;;;5.37;;
75628;SDS011;64213;46.452;16.994;2023-05-07T02:14:17;10.55;;;5.18;;
75628;SDS011;64213;46.452;16.994;2023-05-07T02:17:19;12.17;;;5.47;;
75628;SDS011;64213;46.452;16.994;2023-05-07T02:20:21;11.35;;;5.50;;
75628;SDS011;64213;46.452;16.994;2023-05-07T02:23:23;10.57;;;5.18;;
75628;SDS011;64213;46.452;16.994;2023-05-07T02:26:25;11.00;;;5.50;;
75628;SDS011;64213;46.452;16.994;2023-05-07T02:29:27;11.93;;;5.75;;
75628;SDS011;64213;46.452;16.994;2023-05-07T02:32:29;12.57;;;5.70;;
75628;SDS011;64213;46.452;16.994;2023-05-07T02:35:31;13.18;;;6.28;;
75628;SDS011;64213;46.452;16.994;2023-05-07T02:38:33;13.18;;;6.05;;
75628;SDS011;64213;46.452;16.994;2023-05-07T02:41:36;12.02;;;5.80;;
75628;SDS011;64213;46.452;16.994;2023-05-07T02:44:38;12.93;;;6.10;;
75628;SDS011;64213;46.452;16.994;2023-05-07T02:47:40;12.23;;;5.60;;
75628;SDS011;64213;46.452;16.994;2023-05-07T02:50:42;13.45;;;5.70;;
75628;SDS011;64213;46.452;16.994;2023-05-07T02:53:44;11.65;;;5.70;;
75628;SDS011;64213;46.452;16.994;2023-05-07T02:56:46;12.60;;;5.55;;
75628;SDS011;64213;46.452;16.994;2023-05-07T02:59:48;13.55;;;6.05;;
75628;SDS011;64213;46.452;16.994;2023-05-07T03:02:50;12.60;;;5.90;;
75628;SDS011;64213;46.452;16.994;2023-05-07T03:05:52;12.88;;;6.10;;
75628;SDS011;64213;46.452;16.994;2023-05-07T03:08:54;12.85;;;6.35;;
75628;SDS011;64213;46.452;16.994;2023-05-07T03:11:56;13.32;;;6.55;;
75628;SDS011;64213;46.452;16.994;2023-05-07T03:14:59;13.20;;;6.18;;
75628;SDS011;64213;46.452;16.994;2023-05-07T03:18:01;14.03;;;6.47;;
75628;SDS011;64213;46.452;16.994;2023-05-07T03:21:03;12.23;;;6.00;;
75628;SDS011;64213;46.452;16.994;2023-05-07T03:24:05;15.20;;;6.47;;
75628;SDS011;64213;46.452;16.994;2023-05-07T03:27:07;13.48;;;6.50;;
75628;SDS011;64213;46.452;16.994;2023-05-07T03:30:09;12.35;;;6.25;;
75628;SDS011;64213;46.452;16.994;2023-05-07T03:33:13;12.37;;;6.20;;
75628;SDS011;64213;46.452;16.994;2023-05-07T03:36:15;13.98;;;6.85;;
75628;SDS011;64213;46.452;16.994;2023-05-07T03:39:17;13.10;;;6.25;;
75628;SDS011;64213;46.452;16.994;2023-05-07T03:42:19;14.32;;;6.50;;
75628;SDS011;64213;46.452;16.994;2023-05-07T03:45:21;13.90;;;6.60;;
75628;SDS011;64213;46.452;16.994;2023-05-07T03:48:23;14.60;;;7.37;;
75628;SDS011;64213;46.452;16.994;2023-05-07T03:51:26;14.32;;;6.45;;
75628;SDS011;64213;46.452;16.994;2023-05-07T03:54:29;15.45;;;7.00;;
75628;SDS011;64213;46.452;16.994;2023-05-07T03:57:32;15.30;;;6.45;;
75628;SDS011;64213;46.452;16.994;2023-05-07T04:00:34;14.38;;;7.12;;
75628;SDS011;64213;46.452;16.994;2023-05-07T04:03:39;13.23;;;6.60;;
75628;SDS011;64213;46.452;16.994;2023-05-07T04:06:42;14.87;;;7.40;;
75628;SDS011;64213;46.452;16.994;2023-05-07T04:09:44;14.87;;;6.75;;
75628;SDS011;64213;46.452;16.994;2023-05-07T04:12:46;14.93;;;6.90;;
75628;SDS011;64213;46.452;16.994;2023-05-07T04:15:48;16.20;;;7.03;;
75628;SDS011;64213;46.452;16.994;2023-05-07T04:18:50;14.43;;;6.83;;
75628;SDS011;64213;46.452;16.994;2023-05-07T04:21:52;13.77;;;6.50;;
75628;SDS011;64213;46.452;16.994;2023-05-07T04:24:55;13.10;;;6.87;;
75628;SDS011;64213;46.452;16.994;2023-05-07T04:27:57;14.38;;;7.50;;
75628;SDS011;64213;46.452;16.994;2023-05-07T04:31:00;14.27;;;7.20;;
75628;SDS011;64213;46.452;16.994;2023-05-07T04:34:02;14.47;;;6.97;;
75628;SDS011;64213;46.452;16.994;2023-05-07T04:37:04;15.63;;;7.25;;
75628;SDS011;64213;46.452;16.994;2023-05-07T04:40:06;14.02;;;6.87;;
75628;SDS011;64213;46.452;16.994;2023-05-07T04:43:09;13.55;;;7.03;;
75628;SDS011;64213;46.452;16.994;2023-05-07T04:46:11;14.13;;;6.85;;
75628;SDS011;64213;46.452;16.994;2023-05-07T04:49:13;14.80;;;6.37;;
75628;SDS011;64213;46.452;16.994;2023-05-07T04:52:15;13.00;;;6.87;;
75628;SDS011;64213;46.452;16.994;2023-05-07T04:55:18;12.73;;;6.65;;
75628;SDS011;64213;46.452;16.994;2023-05-07T04:58:20;15.57;;;6.82;;
75628;SDS011;64213;46.452;16.994;2023-05-07T05:01:22;14.43;;;6.72;;
75628;SDS011;64213;46.452;16.994;2023-05-07T05:04:24;13.07;;;6.40;;
75628;SDS011;64213;46.452;16.994;2023-05-07T05:07:27;14.40;;;6.55;;
75628;SDS011;64213;46.452;16.994;2023-05-07T05:10:30;13.05;;;6.45;;
75628;SDS011;64213;46.452;16.994;2023-05-07T05:13:32;13.05;;;6.07;;
75628;SDS011;64213;46.452;16.994;2023-05-07T05:16:34;16.23;;;6.40;;
75628;SDS011;64213;46.452;16.994;2023-05-07T05:19:36;15.00;;;6.07;;
75628;SDS011;64213;46.452;16.994;2023-05-07T05:22:39;11.32;;;5.70;;
75628;SDS011;64213;46.452;16.994;2023-05-07T05:25:40;12.10;;;6.00;;
75628;SDS011;64213;46.452;16.994;2023-05-07T05:28:42;13.20;;;6.50;;
75628;SDS011;64213;46.452;16.994;2023-05-07T05:31:44;11.43;;;5.50;;
75628;SDS011;64213;46.452;16.994;2023-05-07T05:34:47;11.70;;;5.60;;
75628;SDS011;64213;46.452;16.994;2023-05-07T05:37:49;12.35;;;5.87;;
75628;SDS011;64213;46.452;16.994;2023-05-07T05:40:51;11.95;;;5.93;;
75628;SDS011;64213;46.452;16.994;2023-05-07T05:43:56;12.40;;;6.37;;
75628;SDS011;64213;46.452;16.994;2023-05-07T05:46:58;14.45;;;6.30;;
75628;SDS011;64213;46.452;16.994;2023-05-07T05:50:02;13.13;;;6.00;;
75628;SDS011;64213;46.452;16.994;2023-05-07T05:53:04;12.68;;;5.45;;
75628;SDS011;64213;46.452;16.994;2023-05-07T05:56:06;14.98;;;5.65;;
75628;SDS011;64213;46.452;16.994;2023-05-07T05:59:09;10.27;;;4.62;;
75628;SDS011;64213;46.452;16.994;2023-05-07T06:02:11;11.38;;;5.00;;
75628;SDS011;64213;46.452;16.994;2023-05-07T06:05:13;9.70;;;4.53;;
75628;SDS011;64213;46.452;16.994;2023-05-07T06:08:16;10.25;;;5.10;;
75628;SDS011;64213;46.452;16.994;2023-05-07T06:11:20;12.43;;;4.80;;
75628;SDS011;64213;46.452;16.994;2023-05-07T06:14:22;9.93;;;4.40;;
75628;SDS011;64213;46.452;16.994;2023-05-07T06:17:24;10.00;;;4.50;;
75628;SDS011;64213;46.452;16.994;2023-05-07T06:20:26;9.87;;;4.63;;
75628;SDS011;64213;46.452;16.994;2023-05-07T06:23:28;8.82;;;3.85;;
75628;SDS011;64213;46.452;16.994;2023-05-07T06:26:30;9.38;;;4.22;;
75628;SDS011;64213;46.452;16.994;2023-05-07T06:29:32;10.13;;;4.30;;
75628;SDS011;64213;46.452;16.994;2023-05-07T06:32:36;11.57;;;4.07;;
75628;SDS011;64213;46.452;16.994;2023-05-07T06:35:38;8.97;;;4.00;;
75628;SDS011;64213;46.452;16.994;2023-05-07T06:38:40;9.02;;;4.28;;
75628;SDS011;64213;46.452;16.994;2023-05-07T06:41:43;9.52;;;4.07;;
75628;SDS011;64213;46.452;16.994;2023-05-07T06:44:46;8.90;;;4.32;;
75628;SDS011;64213;46.452;16.994;2023-05-07T06:47:48;8.20;;;3.85;;
75628;SDS011;64213;46.452;16.994;2023-05-07T06:50:50;9.07;;;4.20;;
75628;SDS011;64213;46.452;16.994;2023-05-07T06:53:52;8.40;;;3.85;;
75628;SDS011;64213;46.452;16.994;2023-05-07T06:56:54;10.52;;;3.95;;
75628;SDS011;64213;46.452;16.994;2023-05-07T06:59:56;8.32;;;3.72;;
75628;SDS011;64213;46.452;16.994;2023-05-07T07:02:58;7.87;;;3.70;;
75628;SDS011;64213;46.452;16.994;2023-05-07T07:06:01;8.13;;;3.60;;
75628;SDS011;64213;46.452;16.994;2023-05-07T07:09:04;8.65;;;4.40;;
75628;SDS011;64213;46.452;16.994;2023-05-07T07:12:06;8.20;;;4.28;;
75628;SDS011;64213;46.452;16.994;2023-05-07T07:15:08;8.18;;;4.03;;
75628;SDS011;64213;46.452;16.994;2023-05-07T07:18:10;8.55;;;4.30;;
75628;SDS011;64213;46.452;16.994;2023-05-07T07:21:12;8.50;;;4.30;;
75628;SDS011;64213;46.452;16.994;2023-05-07T07:24:15;9.18;;;4.35;;
75628;SDS011;64213;46.452;16.994;2023-05-07T07:27:23;8.38;;;4.50;;
75628;SDS011;64213;46.452;16.994;2023-05-07T07:30:25;9.63;;;4.37;;
75628;SDS011;64213;46.452;16.994;2023-05-07T07:33:27;8.57;;;4.87;;
75628;SDS011;64213;46.452;16.994;2023-05-07T07:36:29;8.90;;;4.30;;
75628;SDS011;64213;46.452;16.994;2023-05-07T07:39:46;9.70;;;4.62;;
75628;SDS011;64213;46.452;16.994;2023-05-07T07:42:48;8.98;;;4.55;;
75628;SDS011;64213;46.452;16.994;2023-05-07T07:45:50;9.15;;;4.90;;
75628;SDS011;64213;46.452;16.994;2023-05-07T07:48:53;10.63;;;4.57;;
75628;SDS011;64213;46.452;16.994;2023-05-07T07:51:55;8.87;;;4.33;;
75628;SDS011;64213;46.452;16.994;2023-05-07T07:54:58;9.82;;;4.57;;
75628;SDS011;64213;46.452;16.994;2023-05-07T07:58:00;9.13;;;4.95;;
75628;SDS011;64213;46.452;16.994;2023-05-07T08:01:02;8.80;;;4.53;;
75628;SDS011;64213;46.452;16.994;2023-05-07T08:04:04;9.43;;;5.22;;
75628;SDS011;64213;46.452;16.994;2023-05-07T08:07:07;9.97;;;4.77;;
75628;SDS011;64213;46.452;16.994;2023-05-07T08:10:09;9.98;;;5.03;;
75628;SDS011;64213;46.452;16.994;2023-05-07T08:13:11;9.38;;;4.43;;
75628;SDS011;64213;46.452;16.994;2023-05-07T08:16:14;9.73;;;3.87;;
75628;SDS011;64213;46.452;16.994;2023-05-07T08:19:16;10.18;;;4.30;;
75628;SDS011;64213;46.452;16.994;2023-05-07T08:22:18;9.47;;;4.80;;
75628;SDS011;64213;46.452;16.994;2023-05-07T08:25:20;8.63;;;4.07;;
75628;SDS011;64213;46.452;16.994;2023-05-07T08:28:22;9.68;;;3.95;;
75628;SDS011;64213;46.452;16.994;2023-05-07T08:31:26;8.70;;;4.10;;
75628;SDS011;64213;46.452;16.994;2023-05-07T08:34:28;10.05;;;5.12;;
75628;SDS011;64213;46.452;16.994;2023-05-07T08:37:30;9.00;;;4.50;;
75628;SDS011;64213;46.452;16.994;2023-05-07T08:40:34;9.40;;;5.10;;
75628;SDS011;64213;46.452;16.994;2023-05-07T08:43:42;8.27;;;4.28;;
75628;SDS011;64213;46.452;16.994;2023-05-07T08:46:51;10.38;;;4.55;;
75628;SDS011;64213;46.452;16.994;2023-05-07T08:49:55;7.55;;;3.90;;
75628;SDS011;64213;46.452;16.994;2023-05-07T08:52:57;8.50;;;4.13;;
75628;SDS011;64213;46.452;16.994;2023-05-07T08:56:00;8.57;;;4.35;;
75628;SDS011;64213;46.452;16.994;2023-05-07T08:59:02;8.50;;;3.95;;
75628;SDS011;64213;46.452;16.994;2023-05-07T09:02:06;9.27;;;4.65;;
75628;SDS011;64213;46.452;16.994;2023-05-07T09:05:11;9.48;;;4.50;;
75628;SDS011;64213;46.452;16.994;2023-05-07T09:08:14;9.10;;;4.73;;
75628;SDS011;64213;46.452;16.994;2023-05-07T09:11:19;12.45;;;5.93;;
75628;SDS011;64213;46.452;16.994;2023-05-07T09:14:23;9.30;;;4.50;;
75628;SDS011;64213;46.452;16.994;2023-05-07T09:17:26;8.57;;;3.72;;
75628;SDS011;64213;46.452;16.994;2023-05-07T09:20:29;8.38;;;4.00;;
75628;SDS011;64213;46.452;16.994;2023-05-07T09:23:32;8.20;;;4.20;;
75628;SDS011;64213;46.452;16.994;2023-05-07T09:26:34;8.32;;;3.95;;
75628;SDS011;64213;46.452;16.994;2023-05-07T09:29:36;7.55;;;3.90;;
75628;SDS011;64213;46.452;16.994;2023-05-07T09:32:39;7.70;;;3.97;;
75628;SDS011;64213;46.452;16.994;2023-05-07T09:35:41;10.07;;;4.45;;
75628;SDS011;64213;46.452;16.994;2023-05-07T09:38:44;10.47;;;4.37;;
75628;SDS011;64213;46.452;16.994;2023-05-07T09:41:47;11.10;;;4.00;;
75628;SDS011;64213;46.452;16.994;2023-05-07T09:44:51;10.05;;;4.53;;
75628;SDS011;64213;46.452;16.994;2023-05-07T09:47:54;9.10;;;4.47;;
75628;SDS011;64213;46.452;16.994;2023-05-07T09:50:57;10.20;;;4.53;;
75628;SDS011;64213;46.452;16.994;2023-05-07T09:54:03;8.37;;;3.90;;
75628;SDS011;64213;46.452;16.994;2023-05-07T09:57:06;7.93;;;3.97;;
75628;SDS011;64213;46.452;16.994;2023-05-07T10:00:11;8.52;;;4.55;;
75628;SDS011;64213;46.452;16.994;2023-05-07T10:03:14;8.27;;;4.22;;
75628;SDS011;64213;46.452;16.994;2023-05-07T10:06:17;8.40;;;3.95;;
75628;SDS011;64213;46.452;16.994;2023-05-07T10:09:21;8.97;;;3.77;;
75628;SDS011;64213;46.452;16.994;2023-05-07T10:12:24;8.00;;;4.07;;
75628;SDS011;64213;46.452;16.994;2023-05-07T10:15:26;8.95;;;4.22;;
75628;SDS011;64213;46.452;16.994;2023-05-07T10:18:30;8.15;;;4.00;;
75628;SDS011;64213;46.452;16.994;2023-05-07T10:21:35;10.70;;;4.47;;
75628;SDS011;64213;46.452;16.994;2023-05-07T10:24:38;9.63;;;3.90;;
75628;SDS011;64213;46.452;16.994;2023-05-07T10:27:41;10.63;;;4.75;;
75628;SDS011;64213;46.452;16.994;2023-05-07T10:34:25;9.23;;;3.70;;
75628;SDS011;64213;46.452;16.994;2023-05-07T10:37:31;7.95;;;3.87;;
75628;SDS011;64213;46.452;16.994;2023-05-07T10:40:33;8.37;;;4.10;;
75628;SDS011;64213;46.452;16.994;2023-05-07T10:43:42;9.63;;;3.90;;
75628;SDS011;64213;46.452;16.994;2023-05-07T10:47:00;8.27;;;3.85;;
75628;SDS011;64213;46.452;16.994;2023-05-07T10:59:29;7.60;;;3.33;;
75628;SDS011;64213;46.452;16.994;2023-05-07T11:03:04;8.80;;;4.10;;
75628;SDS011;64213;46.452;16.994;2023-05-07T11:06:14;8.88;;;4.00;;
75628;SDS011;64213;46.452;16.994;2023-05-07T11:09:17;8.48;;;4.00;;
75628;SDS011;64213;46.452;16.994;2023-05-07T11:15:44;7.25;;;3.50;;
75628;SDS011;64213;46.452;16.994;2023-05-07T11:18:50;7.82;;;3.62;;
75628;SDS011;64213;46.452;16.994;2023-05-07T11:21:54;7.82;;;3.58;;
75628;SDS011;64213;46.452;16.994;2023-05-07T11:24:59;7.70;;;3.42;;
75628;SDS011;64213;46.452;16.994;2023-05-07T11:28:06;9.80;;;3.50;;
75628;SDS011;64213;46.452;16.994;2023-05-07T11:31:11;7.47;;;3.12;;
75628;SDS011;64213;46.452;16.994;2023-05-07T11:34:13;8.20;;;3.50;;
75628;SDS011;64213;46.452;16.994;2023-05-07T11:37:17;7.50;;;3.45;;
75628;SDS011;64213;46.452;16.994;2023-05-07T11:40:19;7.40;;;3.72;;
75628;SDS011;64213;46.452;16.994;2023-05-07T11:43:21;7.30;;;3.43;;
75628;SDS011;64213;46.452;16.994;2023-05-07T11:46:23;7.85;;;3.20;;
75628;SDS011;64213;46.452;16.994;2023-05-07T11:49:26;9.82;;;2.87;;
75628;SDS011;64213;46.452;16.994;2023-05-07T11:52:28;7.65;;;3.40;;
75628;SDS011;64213;46.452;16.994;2023-05-07T11:55:30;7.60;;;3.78;;
75628;SDS011;64213;46.452;16.994;2023-05-07T11:58:32;8.33;;;3.70;;
75628;SDS011;64213;46.452;16.994;2023-05-07T12:01:35;10.35;;;4.57;;
75628;SDS011;64213;46.452;16.994;2023-05-07T12:04:38;8.43;;;4.12;;
75628;SDS011;64213;46.452;16.994;2023-05-07T12:07:40;8.52;;;3.25;;
75628;SDS011;64213;46.452;16.994;2023-05-07T12:10:42;7.53;;;3.70;;
75628;SDS011;64213;46.452;16.994;2023-05-07T12:13:45;7.03;;;3.33;;
75628;SDS011;64213;46.452;16.994;2023-05-07T12:16:47;9.27;;;3.62;;
75628;SDS011;64213;46.452;16.994;2023-05-07T12:19:49;6.72;;;3.00;;
75628;SDS011;64213;46.452;16.994;2023-05-07T12:22:52;7.15;;;2.90;;
75628;SDS011;64213;46.452;16.994;2023-05-07T12:25:55;9.20;;;3.58;;
75628;SDS011;64213;46.452;16.994;2023-05-07T12:28:57;8.40;;;3.43;;
75628;SDS011;64213;46.452;16.994;2023-05-07T12:31:59;8.10;;;3.40;;
75628;SDS011;64213;46.452;16.994;2023-05-07T12:35:02;8.18;;;3.22;;
75628;SDS011;64213;46.452;16.994;2023-05-07T12:38:04;8.65;;;3.00;;
75628;SDS011;64213;46.452;16.994;2023-05-07T12:41:10;7.68;;;3.08;;
75628;SDS011;64213;46.452;16.994;2023-05-07T12:44:14;9.37;;;3.13;;
75628;SDS011;64213;46.452;16.994;2023-05-07T12:47:16;7.03;;;2.72;;
75628;SDS011;64213;46.452;16.994;2023-05-07T12:50:18;6.85;;;3.00;;
75628;SDS011;64213;46.452;16.994;2023-05-07T12:53:23;6.70;;;2.83;;
75628;SDS011;64213;46.452;16.994;2023-05-07T12:56:30;6.90;;;3.20;;
75628;SDS011;64213;46.452;16.994;2023-05-07T12:59:33;7.23;;;2.97;;
75628;SDS011;64213;46.452;16.994;2023-05-07T13:02:39;6.90;;;3.00;;
75628;SDS011;64213;46.452;16.994;2023-05-07T13:05:42;8.77;;;3.15;;
75628;SDS011;64213;46.452;16.994;2023-05-07T13:08:45;7.87;;;3.22;;
75628;SDS011;64213;46.452;16.994;2023-05-07T13:11:47;7.20;;;3.30;;
75628;SDS011;64213;46.452;16.994;2023-05-07T13:14:49;6.57;;;2.87;;
75628;SDS011;64213;46.452;16.994;2023-05-07T13:17:51;6.82;;;2.70;;
75628;SDS011;64213;46.452;16.994;2023-05-07T13:20:53;8.25;;;3.42;;
75628;SDS011;64213;46.452;16.994;2023-05-07T13:23:55;8.48;;;3.80;;
75628;SDS011;64213;46.452;16.994;2023-05-07T13:26:58;8.05;;;3.85;;
75628;SDS011;64213;46.452;16.994;2023-05-07T13:30:00;7.40;;;3.40;;
75628;SDS011;64213;46.452;16.994;2023-05-07T13:33:02;7.28;;;3.15;;
75628;SDS011;64213;46.452;16.994;2023-05-07T13:36:04;7.18;;;3.20;;
75628;SDS011;64213;46.452;16.994;2023-05-07T13:39:07;6.82;;;3.28;;
75628;SDS011;64213;46.452;16.994;2023-05-07T13:42:10;7.25;;;3.40;;
75628;SDS011;64213;46.452;16.994;2023-05-07T13:45:12;6.70;;;3.13;;
75628;SDS011;64213;46.452;16.994;2023-05-07T13:48:15;8.43;;;3.10;;
75628;SDS011;64213;46.452;16.994;2023-05-07T13:51:17;6.45;;;2.70;;
75628;SDS011;64213;46.452;16.994;2023-05-07T13:54:20;6.40;;;2.75;;
75628;SDS011;64213;46.452;16.994;2023-05-07T13:57:22;7.32;;;3.00;;
75628;SDS011;64213;46.452;16.994;2023-05-07T14:00:24;7.53;;;3.30;;
75628;SDS011;64213;46.452;16.994;2023-05-07T14:03:28;9.15;;;3.30;;
75628;SDS011;64213;46.452;16.994;2023-05-07T14:06:30;9.73;;;2.70;;
75628;SDS011;64213;46.452;16.994;2023-05-07T14:09:33;9.18;;;4.15;;
75628;SDS011;64213;46.452;16.994;2023-05-07T14:12:35;7.37;;;3.37;;
75628;SDS011;64213;46.452;16.994;2023-05-07T14:15:37;7.93;;;3.50;;
75628;SDS011;64213;46.452;16.994;2023-05-07T14:18:39;6.65;;;2.60;;
75628;SDS011;64213;46.452;16.994;2023-05-07T14:21:41;7.93;;;3.30;;
75628;SDS011;64213;46.452;16.994;2023-05-07T14:24:43;8.55;;;3.60;;
75628;SDS011;64213;46.452;16.994;2023-05-07T14:27:48;8.23;;;4.20;;
75628;SDS011;64213;46.452;16.994;2023-05-07T14:30:51;14.90;;;6.97;;
75628;SDS011;64213;46.452;16.994;2023-05-07T14:33:53;8.80;;;4.15;;
75628;SDS011;64213;46.452;16.994;2023-05-07T14:36:55;7.32;;;3.30;;
75628;SDS011;64213;46.452;16.994;2023-05-07T14:39:57;7.53;;;3.15;;
75628;SDS011;64213;46.452;16.994;2023-05-07T14:42:59;10.05;;;3.78;;
75628;SDS011;64213;46.452;16.994;2023-05-07T14:46:01;6.67;;;3.00;;
75628;SDS011;64213;46.452;16.994;2023-05-07T14:49:03;7.68;;;3.12;;
75628;SDS011;64213;46.452;16.994;2023-05-07T14:52:06;7.15;;;3.35;;
75628;SDS011;64213;46.452;16.994;2023-05-07T14:55:09;7.43;;;3.35;;
75628;SDS011;64213;46.452;16.994;2023-05-07T14:58:12;8.27;;;3.72;;
75628;SDS011;64213;46.452;16.994;2023-05-07T15:01:14;9.27;;;3.33;;
75628;SDS011;64213;46.452;16.994;2023-05-07T15:04:16;8.68;;;3.40;;
75628;SDS011;64213;46.452;16.994;2023-05-07T15:07:18;7.90;;;3.30;;
75628;SDS011;64213;46.452;16.994;2023-05-07T15:10:20;7.28;;;2.78;;
75628;SDS011;64213;46.452;16.994;2023-05-07T15:13:22;8.55;;;3.10;;
75628;SDS011;64213;46.452;16.994;2023-05-07T15:16:24;7.77;;;3.60;;
75628;SDS011;64213;46.452;16.994;2023-05-07T15:19:27;6.87;;;2.90;;
75628;SDS011;64213;46.452;16.994;2023-05-07T15:22:31;8.27;;;3.40;;
75628;SDS011;64213;46.452;16.994;2023-05-07T15:25:33;7.20;;;2.95;;
75628;SDS011;64213;46.452;16.994;2023-05-07T15:28:35;7.30;;;3.50;;
75628;SDS011;64213;46.452;16.994;2023-05-07T15:31:38;7.23;;;2.90;;
75628;SDS011;64213;46.452;16.994;2023-05-07T15:34:40;6.85;;;2.95;;
75628;SDS011;64213;46.452;16.994;2023-05-07T15:37:42;8.85;;;3.47;;
75628;SDS011;64213;46.452;16.994;2023-05-07T15:40:45;7.80;;;3.10;;
75628;SDS011;64213;46.452;16.994;2023-05-07T15:43:49;7.75;;;3.10;;
75628;SDS011;64213;46.452;16.994;2023-05-07T15:46:53;7.60;;;3.40;;
75628;SDS011;64213;46.452;16.994;2023-05-07T15:49:55;8.20;;;3.50;;
75628;SDS011;64213;46.452;16.994;2023-05-07T15:52:57;7.82;;;3.10;;
75628;SDS011;64213;46.452;16.994;2023-05-07T15:55:59;7.57;;;3.15;;
75628;SDS011;64213;46.452;16.994;2023-05-07T15:59:02;7.78;;;3.05;;
75628;SDS011;64213;46.452;16.994;2023-05-07T16:02:04;7.87;;;3.40;;
75628;SDS011;64213;46.452;16.994;2023-05-07T16:05:07;8.82;;;3.30;;
75628;SDS011;64213;46.452;16.994;2023-05-07T16:08:11;8.38;;;3.25;;
75628;SDS011;64213;46.452;16.994;2023-05-07T16:11:14;7.53;;;3.25;;
75628;SDS011;64213;46.452;16.994;2023-05-07T16:14:16;7.47;;;3.45;;
75628;SDS011;64213;46.452;16.994;2023-05-07T16:17:18;8.80;;;3.73;;
75628;SDS011;64213;46.452;16.994;2023-05-07T16:20:20;7.50;;;3.50;;
75628;SDS011;64213;46.452;16.994;2023-05-07T16:23:23;8.18;;;3.70;;
75628;SDS011;64213;46.452;16.994;2023-05-07T16:26:30;7.47;;;3.50;;
75628;SDS011;64213;46.452;16.994;2023-05-07T16:29:32;9.02;;;3.72;;
75628;SDS011;64213;46.452;16.994;2023-05-07T16:32:34;6.87;;;2.97;;
75628;SDS011;64213;46.452;16.994;2023-05-07T16:35:36;8.48;;;2.97;;
75628;SDS011;64213;46.452;16.994;2023-05-07T16:38:39;8.43;;;3.72;;
75628;SDS011;64213;46.452;16.994;2023-05-07T16:41:41;7.82;;;3.70;;
75628;SDS011;64213;46.452;16.994;2023-05-07T16:44:44;7.90;;;3.42;;
75628;SDS011;64213;46.452;16.994;2023-05-07T16:47:46;8.60;;;3.30;;
75628;SDS011;64213;46.452;16.994;2023-05-07T16:50:48;8.20;;;3.50;;
75628;SDS011;64213;46.452;16.994;2023-05-07T16:53:50;8.75;;;3.65;;
75628;SDS011;64213;46.452;16.994;2023-05-07T16:56:53;11.85;;;3.70;;
75628;SDS011;64213;46.452;16.994;2023-05-07T16:59:55;8.48;;;3.70;;
75628;SDS011;64213;46.452;16.994;2023-05-07T17:02:58;8.30;;;3.20;;
75628;SDS011;64213;46.452;16.994;2023-05-07T17:06:00;8.65;;;3.35;;
75628;SDS011;64213;46.452;16.994;2023-05-07T17:09:02;8.25;;;3.80;;
75628;SDS011;64213;46.452;16.994;2023-05-07T17:12:10;9.10;;;4.12;;
75628;SDS011;64213;46.452;16.994;2023-05-07T17:15:12;8.55;;;3.45;;
75628;SDS011;64213;46.452;16.994;2023-05-07T17:18:15;8.03;;;3.70;;
75628;SDS011;64213;46.452;16.994;2023-05-07T17:21:17;10.00;;;3.97;;
75628;SDS011;64213;46.452;16.994;2023-05-07T17:24:19;9.98;;;4.00;;
75628;SDS011;64213;46.452;16.994;2023-05-07T17:27:21;10.40;;;3.37;;
75628;SDS011;64213;46.452;16.994;2023-05-07T17:30:23;9.38;;;3.90;;
75628;SDS011;64213;46.452;16.994;2023-05-07T17:33:25;8.47;;;4.03;;
75628;SDS011;64213;46.452;16.994;2023-05-07T17:36:27;8.80;;;4.00;;
75628;SDS011;64213;46.452;16.994;2023-05-07T17:39:29;10.25;;;4.30;;
75628;SDS011;64213;46.452;16.994;2023-05-07T17:42:31;9.43;;;3.95;;
75628;SDS011;64213;46.452;16.994;2023-05-07T17:45:34;9.13;;;4.00;;
75628;SDS011;64213;46.452;16.994;2023-05-07T17:48:37;9.40;;;3.93;;
75628;SDS011;64213;46.452;16.994;2023-05-07T17:51:39;10.73;;;4.05;;
75628;SDS011;64213;46.452;16.994;2023-05-07T17:54:55;10.23;;;4.85;;
75628;SDS011;64213;46.452;16.994;2023-05-07T17:57:56;9.18;;;4.22;;
75628;SDS011;64213;46.452;16.994;2023-05-07T18:00:59;14.20;;;4.68;;
75628;SDS011;64213;46.452;16.994;2023-05-07T18:04:01;9.37;;;4.17;;
75628;SDS011;64213;46.452;16.994;2023-05-07T18:07:03;9.85;;;4.55;;
75628;SDS011;64213;46.452;16.994;2023-05-07T18:10:05;9.65;;;4.50;;
75628;SDS011;64213;46.452;16.994;2023-05-07T18:13:08;10.13;;;4.40;;